Runeberg, Minnesota
Current Conditions -  °F | °C
As of 2:53 PM on Sunday 21 Dec 2014 (Local Time) from KPKD Reporting Station
Haze Haze  
Wind Chill: 24°   Ceiling: 500
Heat Index: 33°   Visibility: 4mi
Dew Point: 31°   Wind: 12mph
Humidity: 92%   Direction: 170°S
Pressure: 29.64"   Gusts: NA
Location:  46.7591°N, 94.9748°W
Report Text: KPKD 212053Z AUTO 17010KT 4SM BR OVC005 01/M01 A2964 RMK AO2 SLP055 I1001 I3002 T00061006 55009
Loading
Personal Weather Stations






























Interactive Weather Map New forecast layout! Learn more

10-Day Weather Forecast

Advertisements
Track Severe Weather on mobile